sensor_id;sensor_type;location;lat;lon;timestamp;temperature;humidity
10070;DHT22;5074;53.720;10.014;2022-08-21T00:01:03;13.70;99.90
10070;DHT22;5074;53.720;10.014;2022-08-21T00:03:33;13.70;99.90
10070;DHT22;5074;53.720;10.014;2022-08-21T00:06:02;13.70;99.90
10070;DHT22;5074;53.720;10.014;2022-08-21T00:08:30;13.60;99.90
10070;DHT22;5074;53.720;10.014;2022-08-21T00:10:59;13.60;99.90
10070;DHT22;5074;53.720;10.014;2022-08-21T00:13:28;13.50;99.90
10070;DHT22;5074;53.720;10.014;2022-08-21T00:15:56;13.60;99.90
10070;DHT22;5074;53.720;10.014;2022-08-21T00:18:24;13.70;99.90
10070;DHT22;5074;53.720;10.014;2022-08-21T00:20:53;13.60;99.90
10070;DHT22;5074;53.720;10.014;2022-08-21T00:23:21;13.60;99.90
10070;DHT22;5074;53.720;10.014;2022-08-21T00:25:50;13.40;99.90
10070;DHT22;5074;53.720;10.014;2022-08-21T00:28:19;13.40;99.90
10070;DHT22;5074;53.720;10.014;2022-08-21T00:30:47;13.40;99.90
10070;DHT22;5074;53.720;10.014;2022-08-21T00:33:15;13.30;99.90
10070;DHT22;5074;53.720;10.014;2022-08-21T00:35:43;13.40;99.90
10070;DHT22;5074;53.720;10.014;2022-08-21T00:38:11;13.30;99.90
10070;DHT22;5074;53.720;10.014;2022-08-21T00:40:41;13.40;99.90
10070;DHT22;5074;53.720;10.014;2022-08-21T00:43:12;13.40;99.90
10070;DHT22;5074;53.720;10.014;2022-08-21T00:45:44;13.60;99.90
10070;DHT22;5074;53.720;10.014;2022-08-21T00:48:13;13.50;99.90
10070;DHT22;5074;53.720;10.014;2022-08-21T00:50:42;13.50;99.90
10070;DHT22;5074;53.720;10.014;2022-08-21T00:53:14;13.50;99.90
10070;DHT22;5074;53.720;10.014;2022-08-21T00:55:42;13.40;99.90
10070;DHT22;5074;53.720;10.014;2022-08-21T00:58:11;13.40;99.90
10070;DHT22;5074;53.720;10.014;2022-08-21T01:00:43;13.30;99.90
10070;DHT22;5074;53.720;10.014;2022-08-21T01:03:15;13.30;99.90
10070;DHT22;5074;53.720;10.014;2022-08-21T01:05:49;13.40;99.90
10070;DHT22;5074;53.720;10.014;2022-08-21T01:08:18;13.40;99.90
10070;DHT22;5074;53.720;10.014;2022-08-21T01:10:47;13.50;99.90
10070;DHT22;5074;53.720;10.014;2022-08-21T01:13:20;13.50;99.90
10070;DHT22;5074;53.720;10.014;2022-08-21T01:15:53;13.50;99.90
10070;DHT22;5074;53.720;10.014;2022-08-21T01:18:23;13.40;99.90
10070;DHT22;5074;53.720;10.014;2022-08-21T01:20:59;13.30;99.90
10070;DHT22;5074;53.720;10.014;2022-08-21T01:23:31;13.30;99.90
10070;DHT22;5074;53.720;10.014;2022-08-21T01:26:01;13.10;99.90
10070;DHT22;5074;53.720;10.014;2022-08-21T01:28:31;13.00;99.90
10070;DHT22;5074;53.720;10.014;2022-08-21T01:31:02;13.00;99.90
10070;DHT22;5074;53.720;10.014;2022-08-21T01:33:32;13.00;99.90
10070;DHT22;5074;53.720;10.014;2022-08-21T01:36:01;13.10;99.90
10070;DHT22;5074;53.720;10.014;2022-08-21T01:38:31;13.10;99.90
10070;DHT22;5074;53.720;10.014;2022-08-21T01:40:59;13.10;99.90
10070;DHT22;5074;53.720;10.014;2022-08-21T01:43:27;12.90;99.90
10070;DHT22;5074;53.720;10.014;2022-08-21T01:46:05;12.90;99.90
10070;DHT22;5074;53.720;10.014;2022-08-21T01:48:33;12.80;99.90
10070;DHT22;5074;53.720;10.014;2022-08-21T01:51:03;12.70;99.90
10070;DHT22;5074;53.720;10.014;2022-08-21T01:53:32;12.70;99.90
10070;DHT22;5074;53.720;10.014;2022-08-21T01:56:02;12.80;99.90
10070;DHT22;5074;53.720;10.014;2022-08-21T01:58:38;13.00;99.90
10070;DHT22;5074;53.720;10.014;2022-08-21T02:01:07;13.00;99.90
10070;DHT22;5074;53.720;10.014;2022-08-21T02:03:36;13.00;99.90
10070;DHT22;5074;53.720;10.014;2022-08-21T02:06:06;12.80;99.90
10070;DHT22;5074;53.720;10.014;2022-08-21T02:08:35;12.80;99.90
10070;DHT22;5074;53.720;10.014;2022-08-21T02:11:03;12.80;99.90
10070;DHT22;5074;53.720;10.014;2022-08-21T02:13:31;12.70;99.90
10070;DHT22;5074;53.720;10.014;2022-08-21T02:15:59;12.70;99.90
10070;DHT22;5074;53.720;10.014;2022-08-21T02:18:27;12.70;99.90
10070;DHT22;5074;53.720;10.014;2022-08-21T02:20:56;12.80;99.90
10070;DHT22;5074;53.720;10.014;2022-08-21T02:23:25;12.80;99.90
10070;DHT22;5074;53.720;10.014;2022-08-21T02:25:53;12.80;99.90
10070;DHT22;5074;53.720;10.014;2022-08-21T02:28:22;12.70;99.90
10070;DHT22;5074;53.720;10.014;2022-08-21T02:30:51;12.70;99.90
10070;DHT22;5074;53.720;10.014;2022-08-21T02:33:20;12.60;99.90
10070;DHT22;5074;53.720;10.014;2022-08-21T02:35:49;12.50;99.90
10070;DHT22;5074;53.720;10.014;2022-08-21T02:38:19;12.50;99.90
10070;DHT22;5074;53.720;10.014;2022-08-21T02:40:51;12.40;99.90
10070;DHT22;5074;53.720;10.014;2022-08-21T02:43:20;12.30;99.90
10070;DHT22;5074;53.720;10.014;2022-08-21T02:45:50;12.50;99.90
10070;DHT22;5074;53.720;10.014;2022-08-21T02:48:19;12.40;99.90
10070;DHT22;5074;53.720;10.014;2022-08-21T02:50:51;12.40;99.90
10070;DHT22;5074;53.720;10.014;2022-08-21T02:53:21;12.50;99.90
10070;DHT22;5074;53.720;10.014;2022-08-21T02:55:50;12.50;99.90
10070;DHT22;5074;53.720;10.014;2022-08-21T02:58:21;12.50;99.90
10070;DHT22;5074;53.720;10.014;2022-08-21T03:00:50;12.60;99.90
10070;DHT22;5074;53.720;10.014;2022-08-21T03:03:19;12.70;99.90
10070;DHT22;5074;53.720;10.014;2022-08-21T03:05:48;12.70;99.90
10070;DHT22;5074;53.720;10.014;2022-08-21T03:08:17;12.70;99.90
10070;DHT22;5074;53.720;10.014;2022-08-21T03:10:46;12.70;99.90
10070;DHT22;5074;53.720;10.014;2022-08-21T03:13:17;12.70;99.90
10070;DHT22;5074;53.720;10.014;2022-08-21T03:15:47;12.70;99.90
10070;DHT22;5074;53.720;10.014;2022-08-21T03:18:15;12.80;99.90
10070;DHT22;5074;53.720;10.014;2022-08-21T03:20:44;12.80;99.90
10070;DHT22;5074;53.720;10.014;2022-08-21T03:23:14;12.80;99.90
10070;DHT22;5074;53.720;10.014;2022-08-21T03:25:45;12.80;99.90
10070;DHT22;5074;53.720;10.014;2022-08-21T03:28:16;12.80;99.90
10070;DHT22;5074;53.720;10.014;2022-08-21T03:30:49;12.90;99.90
10070;DHT22;5074;53.720;10.014;2022-08-21T03:33:18;12.90;99.90
10070;DHT22;5074;53.720;10.014;2022-08-21T03:35:52;12.90;99.90
10070;DHT22;5074;53.720;10.014;2022-08-21T03:38:24;12.90;99.90
10070;DHT22;5074;53.720;10.014;2022-08-21T03:40:53;12.90;99.90
10070;DHT22;5074;53.720;10.014;2022-08-21T03:43:23;12.90;99.90
10070;DHT22;5074;53.720;10.014;2022-08-21T03:45:51;12.80;99.90
10070;DHT22;5074;53.720;10.014;2022-08-21T03:48:19;12.80;99.90
10070;DHT22;5074;53.720;10.014;2022-08-21T03:50:48;12.70;99.90
10070;DHT22;5074;53.720;10.014;2022-08-21T03:53:16;12.70;99.90
10070;DHT22;5074;53.720;10.014;2022-08-21T03:55:44;12.70;99.90
10070;DHT22;5074;53.720;10.014;2022-08-21T03:58:14;12.80;99.90
10070;DHT22;5074;53.720;10.014;2022-08-21T04:00:45;12.80;99.90
10070;DHT22;5074;53.720;10.014;2022-08-21T04:03:15;12.70;99.90
10070;DHT22;5074;53.720;10.014;2022-08-21T04:05:43;12.70;99.90
10070;DHT22;5074;53.720;10.014;2022-08-21T04:08:13;12.50;99.90
10070;DHT22;5074;53.720;10.014;2022-08-21T04:10:44;12.50;99.90
10070;DHT22;5074;53.720;10.014;2022-08-21T04:13:14;12.40;99.90
10070;DHT22;5074;53.720;10.014;2022-08-21T04:15:42;12.40;99.90
10070;DHT22;5074;53.720;10.014;2022-08-21T04:18:11;12.40;99.90
10070;DHT22;5074;53.720;10.014;2022-08-21T04:20:40;12.30;99.90
10070;DHT22;5074;53.720;10.014;2022-08-21T04:23:15;12.40;99.90
10070;DHT22;5074;53.720;10.014;2022-08-21T04:25:50;12.50;99.90
10070;DHT22;5074;53.720;10.014;2022-08-21T04:28:19;12.50;99.90
10070;DHT22;5074;53.720;10.014;2022-08-21T04:30:49;12.60;99.90
10070;DHT22;5074;53.720;10.014;2022-08-21T04:33:20;12.70;99.90
10070;DHT22;5074;53.720;10.014;2022-08-21T04:35:49;12.80;99.90
10070;DHT22;5074;53.720;10.014;2022-08-21T04:38:18;12.90;99.90
10070;DHT22;5074;53.720;10.014;2022-08-21T04:40:47;12.90;99.90
10070;DHT22;5074;53.720;10.014;2022-08-21T04:43:15;13.00;99.90
10070;DHT22;5074;53.720;10.014;2022-08-21T04:45:45;13.00;99.90
10070;DHT22;5074;53.720;10.014;2022-08-21T04:48:16;13.00;99.90
10070;DHT22;5074;53.720;10.014;2022-08-21T04:50:48;12.90;99.90
10070;DHT22;5074;53.720;10.014;2022-08-21T04:53:20;12.90;99.90
10070;DHT22;5074;53.720;10.014;2022-08-21T04:55:52;12.90;99.90
10070;DHT22;5074;53.720;10.014;2022-08-21T04:58:22;12.90;99.90
10070;DHT22;5074;53.720;10.014;2022-08-21T05:00:54;12.80;99.90
10070;DHT22;5074;53.720;10.014;2022-08-21T05:03:25;12.80;99.90
10070;DHT22;5074;53.720;10.014;2022-08-21T05:05:55;12.80;99.90
10070;DHT22;5074;53.720;10.014;2022-08-21T05:08:23;12.80;99.90
10070;DHT22;5074;53.720;10.014;2022-08-21T05:10:55;12.90;99.90
10070;DHT22;5074;53.720;10.014;2022-08-21T05:13:26;12.90;99.90
10070;DHT22;5074;53.720;10.014;2022-08-21T05:15:54;12.90;99.90
10070;DHT22;5074;53.720;10.014;2022-08-21T05:18:23;12.90;99.90
10070;DHT22;5074;53.720;10.014;2022-08-21T05:20:51;12.90;99.90
10070;DHT22;5074;53.720;10.014;2022-08-21T05:23:20;12.90;99.90
10070;DHT22;5074;53.720;10.014;2022-08-21T05:25:48;13.00;99.90
10070;DHT22;5074;53.720;10.014;2022-08-21T05:28:16;13.00;99.90
10070;DHT22;5074;53.720;10.014;2022-08-21T05:30:45;13.10;99.90
10070;DHT22;5074;53.720;10.014;2022-08-21T05:33:13;13.20;99.90
10070;DHT22;5074;53.720;10.014;2022-08-21T05:35:41;13.20;99.90
10070;DHT22;5074;53.720;10.014;2022-08-21T05:38:09;13.30;99.90
10070;DHT22;5074;53.720;10.014;2022-08-21T05:40:45;13.40;99.90
10070;DHT22;5074;53.720;10.014;2022-08-21T05:43:14;13.40;99.90
10070;DHT22;5074;53.720;10.014;2022-08-21T05:45:43;13.50;99.90
10070;DHT22;5074;53.720;10.014;2022-08-21T05:48:11;13.60;99.90
10070;DHT22;5074;53.720;10.014;2022-08-21T05:50:41;13.70;99.90
10070;DHT22;5074;53.720;10.014;2022-08-21T05:53:12;13.70;99.90
10070;DHT22;5074;53.720;10.014;2022-08-21T05:55:41;13.80;99.90
10070;DHT22;5074;53.720;10.014;2022-08-21T05:58:14;13.90;99.90
10070;DHT22;5074;53.720;10.014;2022-08-21T06:00:44;14.00;99.90
10070;DHT22;5074;53.720;10.014;2022-08-21T06:03:14;14.10;99.90
10070;DHT22;5074;53.720;10.014;2022-08-21T06:05:44;14.10;99.90
10070;DHT22;5074;53.720;10.014;2022-08-21T06:08:13;14.30;99.90
10070;DHT22;5074;53.720;10.014;2022-08-21T06:10:42;14.40;99.90
10070;DHT22;5074;53.720;10.014;2022-08-21T06:13:11;14.50;99.90
10070;DHT22;5074;53.720;10.014;2022-08-21T06:15:40;14.50;99.90
10070;DHT22;5074;53.720;10.014;2022-08-21T06:18:09;14.60;99.90
10070;DHT22;5074;53.720;10.014;2022-08-21T06:20:37;14.60;99.90
10070;DHT22;5074;53.720;10.014;2022-08-21T06:23:06;14.70;99.90
10070;DHT22;5074;53.720;10.014;2022-08-21T06:25:34;14.80;99.90
10070;DHT22;5074;53.720;10.014;2022-08-21T06:28:03;14.80;99.90
10070;DHT22;5074;53.720;10.014;2022-08-21T06:30:33;14.90;99.90
10070;DHT22;5074;53.720;10.014;2022-08-21T06:33:03;14.90;99.90
10070;DHT22;5074;53.720;10.014;2022-08-21T06:35:32;15.00;99.90
10070;DHT22;5074;53.720;10.014;2022-08-21T06:38:01;15.00;99.90
10070;DHT22;5074;53.720;10.014;2022-08-21T06:40:30;15.10;99.90
10070;DHT22;5074;53.720;10.014;2022-08-21T06:43:04;15.20;99.90
10070;DHT22;5074;53.720;10.014;2022-08-21T06:45:35;15.20;99.90
10070;DHT22;5074;53.720;10.014;2022-08-21T06:48:05;15.30;99.90
10070;DHT22;5074;53.720;10.014;2022-08-21T06:50:34;15.40;99.90
10070;DHT22;5074;53.720;10.014;2022-08-21T06:53:03;15.50;99.90
10070;DHT22;5074;53.720;10.014;2022-08-21T06:55:32;15.60;99.90
10070;DHT22;5074;53.720;10.014;2022-08-21T06:58:00;15.70;99.90
10070;DHT22;5074;53.720;10.014;2022-08-21T07:00:28;15.80;99.90
10070;DHT22;5074;53.720;10.014;2022-08-21T07:02:56;16.00;99.90
10070;DHT22;5074;53.720;10.014;2022-08-21T07:05:27;16.00;99.90
10070;DHT22;5074;53.720;10.014;2022-08-21T07:07:57;16.10;99.90
10070;DHT22;5074;53.720;10.014;2022-08-21T07:10:25;16.20;99.90
10070;DHT22;5074;53.720;10.014;2022-08-21T07:12:54;16.40;99.90
10070;DHT22;5074;53.720;10.014;2022-08-21T07:15:27;16.50;99.90
10070;DHT22;5074;53.720;10.014;2022-08-21T07:17:57;16.70;99.90
10070;DHT22;5074;53.720;10.014;2022-08-21T07:20:27;16.70;99.90
10070;DHT22;5074;53.720;10.014;2022-08-21T07:22:57;16.90;99.90
10070;DHT22;5074;53.720;10.014;2022-08-21T07:25:28;16.90;99.90
10070;DHT22;5074;53.720;10.014;2022-08-21T07:27:56;17.00;99.90
10070;DHT22;5074;53.720;10.014;2022-08-21T07:30:25;17.10;99.90
10070;DHT22;5074;53.720;10.014;2022-08-21T07:32:54;17.20;99.90
10070;DHT22;5074;53.720;10.014;2022-08-21T07:35:24;17.30;99.90
10070;DHT22;5074;53.720;10.014;2022-08-21T07:37:55;17.30;99.90
10070;DHT22;5074;53.720;10.014;2022-08-21T07:40:23;17.30;99.90
10070;DHT22;5074;53.720;10.014;2022-08-21T07:42:51;17.40;99.90
10070;DHT22;5074;53.720;10.014;2022-08-21T07:45:21;17.50;99.90
10070;DHT22;5074;53.720;10.014;2022-08-21T07:47:50;17.60;99.90
10070;DHT22;5074;53.720;10.014;2022-08-21T07:50:23;17.80;99.90
10070;DHT22;5074;53.720;10.014;2022-08-21T07:52:51;17.80;99.90
10070;DHT22;5074;53.720;10.014;2022-08-21T07:55:21;17.90;99.90
10070;DHT22;5074;53.720;10.014;2022-08-21T07:57:50;18.10;99.90
10070;DHT22;5074;53.720;10.014;2022-08-21T08:00:20;18.20;99.90
10070;DHT22;5074;53.720;10.014;2022-08-21T08:02:51;18.30;99.90
10070;DHT22;5074;53.720;10.014;2022-08-21T08:05:21;18.40;99.90
10070;DHT22;5074;53.720;10.014;2022-08-21T08:07:50;18.40;99.90
10070;DHT22;5074;53.720;10.014;2022-08-21T08:10:19;18.60;99.90
10070;DHT22;5074;53.720;10.014;2022-08-21T08:12:50;18.70;99.90
10070;DHT22;5074;53.720;10.014;2022-08-21T08:15:21;18.80;99.90
10070;DHT22;5074;53.720;10.014;2022-08-21T08:17:52;19.00;99.90
10070;DHT22;5074;53.720;10.014;2022-08-21T08:20:21;19.00;99.90
10070;DHT22;5074;53.720;10.014;2022-08-21T08:22:51;19.10;99.90
10070;DHT22;5074;53.720;10.014;2022-08-21T08:25:22;19.30;99.90
10070;DHT22;5074;53.720;10.014;2022-08-21T08:27:51;19.30;99.90
10070;DHT22;5074;53.720;10.014;2022-08-21T08:30:19;19.40;99.90
10070;DHT22;5074;53.720;10.014;2022-08-21T08:32:49;19.50;99.90
10070;DHT22;5074;53.720;10.014;2022-08-21T08:35:17;19.50;99.90
10070;DHT22;5074;53.720;10.014;2022-08-21T08:37:50;19.60;99.90
10070;DHT22;5074;53.720;10.014;2022-08-21T08:40:20;19.60;99.90
10070;DHT22;5074;53.720;10.014;2022-08-21T08:42:56;19.60;99.90
10070;DHT22;5074;53.720;10.014;2022-08-21T08:45:24;19.60;99.90
10070;DHT22;5074;53.720;10.014;2022-08-21T08:47:55;19.80;99.90
10070;DHT22;5074;53.720;10.014;2022-08-21T08:50:30;19.90;99.90
10070;DHT22;5074;53.720;10.014;2022-08-21T08:53:10;19.90;99.90
10070;DHT22;5074;53.720;10.014;2022-08-21T08:55:44;20.00;99.90
10070;DHT22;5074;53.720;10.014;2022-08-21T08:58:14;20.10;99.90
10070;DHT22;5074;53.720;10.014;2022-08-21T09:00:47;20.10;99.90
10070;DHT22;5074;53.720;10.014;2022-08-21T09:03:17;20.10;99.90
10070;DHT22;5074;53.720;10.014;2022-08-21T09:05:47;20.10;99.90
10070;DHT22;5074;53.720;10.014;2022-08-21T09:08:36;20.20;99.90
10070;DHT22;5074;53.720;10.014;2022-08-21T09:11:22;20.10;99.90
10070;DHT22;5074;53.720;10.014;2022-08-21T09:14:05;20.10;99.90
10070;DHT22;5074;53.720;10.014;2022-08-21T09:16:46;20.20;99.90
10070;DHT22;5074;53.720;10.014;2022-08-21T09:22:23;20.30;99.90
10070;DHT22;5074;53.720;10.014;2022-08-21T09:25:04;20.30;99.90
10070;DHT22;5074;53.720;10.014;2022-08-21T09:27:40;20.30;99.90
10070;DHT22;5074;53.720;10.014;2022-08-21T09:30:08;20.40;99.90
10070;DHT22;5074;53.720;10.014;2022-08-21T09:32:37;20.30;99.90
10070;DHT22;5074;53.720;10.014;2022-08-21T09:35:08;20.40;99.90
10070;DHT22;5074;53.720;10.014;2022-08-21T09:37:45;20.50;99.90
10070;DHT22;5074;53.720;10.014;2022-08-21T09:40:32;20.50;99.90
10070;DHT22;5074;53.720;10.014;2022-08-21T09:43:06;20.50;99.90
10070;DHT22;5074;53.720;10.014;2022-08-21T09:45:44;20.60;99.90
10070;DHT22;5074;53.720;10.014;2022-08-21T09:48:14;20.60;99.90
10070;DHT22;5074;53.720;10.014;2022-08-21T09:50:45;20.70;99.90
10070;DHT22;5074;53.720;10.014;2022-08-21T09:53:16;20.70;99.90
10070;DHT22;5074;53.720;10.014;2022-08-21T09:55:48;20.80;99.90
10070;DHT22;5074;53.720;10.014;2022-08-21T09:58:39;20.90;99.90
10070;DHT22;5074;53.720;10.014;2022-08-21T10:01:12;21.10;99.90
10070;DHT22;5074;53.720;10.014;2022-08-21T10:03:42;21.10;99.90
10070;DHT22;5074;53.720;10.014;2022-08-21T10:06:19;21.10;99.90
10070;DHT22;5074;53.720;10.014;2022-08-21T10:08:50;21.00;99.90
10070;DHT22;5074;53.720;10.014;2022-08-21T10:11:18;21.00;99.90
10070;DHT22;5074;53.720;10.014;2022-08-21T10:13:58;21.10;99.90
10070;DHT22;5074;53.720;10.014;2022-08-21T10:16:37;21.30;99.90
10070;DHT22;5074;53.720;10.014;2022-08-21T10:19:15;21.40;99.90
10070;DHT22;5074;53.720;10.014;2022-08-21T10:21:55;21.30;99.90
10070;DHT22;5074;53.720;10.014;2022-08-21T10:24:29;21.20;99.90
10070;DHT22;5074;53.720;10.014;2022-08-21T10:27:07;21.10;99.90
10070;DHT22;5074;53.720;10.014;2022-08-21T10:29:46;21.10;99.90
10070;DHT22;5074;53.720;10.014;2022-08-21T10:32:26;21.20;99.90
10070;DHT22;5074;53.720;10.014;2022-08-21T10:35:06;21.30;99.90
10070;DHT22;5074;53.720;10.014;2022-08-21T10:37:46;21.30;99.90
10070;DHT22;5074;53.720;10.014;2022-08-21T10:40:25;21.20;99.90
10070;DHT22;5074;53.720;10.014;2022-08-21T10:43:01;21.30;99.90
10070;DHT22;5074;53.720;10.014;2022-08-21T10:45:43;21.40;99.90
10070;DHT22;5074;53.720;10.014;2022-08-21T10:48:22;21.50;99.90
10070;DHT22;5074;53.720;10.014;2022-08-21T10:50:59;21.50;99.90
10070;DHT22;5074;53.720;10.014;2022-08-21T10:53:40;21.70;99.90
10070;DHT22;5074;53.720;10.014;2022-08-21T10:56:16;21.90;99.90
10070;DHT22;5074;53.720;10.014;2022-08-21T10:58:47;21.90;99.90
10070;DHT22;5074;53.720;10.014;2022-08-21T11:01:29;21.90;99.90
10070;DHT22;5074;53.720;10.014;2022-08-21T11:04:09;21.70;99.90
10070;DHT22;5074;53.720;10.014;2022-08-21T11:06:45;21.60;99.90
10070;DHT22;5074;53.720;10.014;2022-08-21T11:09:18;21.70;99.90
10070;DHT22;5074;53.720;10.014;2022-08-21T11:11:51;21.70;99.90
10070;DHT22;5074;53.720;10.014;2022-08-21T11:14:39;21.70;99.90
10070;DHT22;5074;53.720;10.014;2022-08-21T11:17:18;21.60;99.90
10070;DHT22;5074;53.720;10.014;2022-08-21T11:19:52;21.60;99.90
10070;DHT22;5074;53.720;10.014;2022-08-21T11:22:28;21.80;99.90
10070;DHT22;5074;53.720;10.014;2022-08-21T11:25:03;22.00;99.90
10070;DHT22;5074;53.720;10.014;2022-08-21T11:27:39;22.20;99.90
10070;DHT22;5074;53.720;10.014;2022-08-21T11:30:11;22.40;99.90
10070;DHT22;5074;53.720;10.014;2022-08-21T11:35:42;22.60;99.90
10070;DHT22;5074;53.720;10.014;2022-08-21T11:38:24;22.70;99.90
10070;DHT22;5074;53.720;10.014;2022-08-21T11:41:02;22.70;99.90
10070;DHT22;5074;53.720;10.014;2022-08-21T11:43:41;22.70;99.90
10070;DHT22;5074;53.720;10.014;2022-08-21T11:46:25;22.80;99.90
10070;DHT22;5074;53.720;10.014;2022-08-21T11:49:06;23.00;99.90
10070;DHT22;5074;53.720;10.014;2022-08-21T11:51:50;22.90;99.90
10070;DHT22;5074;53.720;10.014;2022-08-21T11:54:38;22.80;99.90
10070;DHT22;5074;53.720;10.014;2022-08-21T11:57:13;22.60;99.90
10070;DHT22;5074;53.720;10.014;2022-08-21T11:59:47;22.40;99.90
10070;DHT22;5074;53.720;10.014;2022-08-21T12:02:20;22.30;99.90
10070;DHT22;5074;53.720;10.014;2022-08-21T12:04:55;22.40;99.90
10070;DHT22;5074;53.720;10.014;2022-08-21T12:07:35;22.40;99.90
10070;DHT22;5074;53.720;10.014;2022-08-21T12:10:06;22.40;99.90
10070;DHT22;5074;53.720;10.014;2022-08-21T12:12:37;22.40;99.90
10070;DHT22;5074;53.720;10.014;2022-08-21T12:15:13;22.40;99.90
10070;DHT22;5074;53.720;10.014;2022-08-21T12:17:53;22.40;99.90
10070;DHT22;5074;53.720;10.014;2022-08-21T12:20:35;22.60;99.90
10070;DHT22;5074;53.720;10.014;2022-08-21T12:23:24;22.90;99.90
10070;DHT22;5074;53.720;10.014;2022-08-21T12:26:02;23.20;99.90
10070;DHT22;5074;53.720;10.014;2022-08-21T12:28:47;23.60;99.90
10070;DHT22;5074;53.720;10.014;2022-08-21T12:31:19;24.00;99.90
10070;DHT22;5074;53.720;10.014;2022-08-21T12:33:51;24.20;99.90
10070;DHT22;5074;53.720;10.014;2022-08-21T12:36:27;24.20;99.90
10070;DHT22;5074;53.720;10.014;2022-08-21T12:39:10;24.10;99.90
10070;DHT22;5074;53.720;10.014;2022-08-21T12:41:43;23.80;99.90
10070;DHT22;5074;53.720;10.014;2022-08-21T12:44:15;23.60;99.90
10070;DHT22;5074;53.720;10.014;2022-08-21T12:46:51;23.30;99.90
10070;DHT22;5074;53.720;10.014;2022-08-21T12:49:26;23.20;99.90
10070;DHT22;5074;53.720;10.014;2022-08-21T12:52:03;23.40;99.90
10070;DHT22;5074;53.720;10.014;2022-08-21T12:54:42;23.30;99.90
10070;DHT22;5074;53.720;10.014;2022-08-21T12:57:17;23.30;99.90
10070;DHT22;5074;53.720;10.014;2022-08-21T12:59:51;23.90;99.90
10070;DHT22;5074;53.720;10.014;2022-08-21T13:02:23;25.60;99.50
10070;DHT22;5074;53.720;10.014;2022-08-21T13:04:53;27.20;97.30
10070;DHT22;5074;53.720;10.014;2022-08-21T13:07:27;27.60;96.40
10070;DHT22;5074;53.720;10.014;2022-08-21T13:09:59;27.60;96.20
10070;DHT22;5074;53.720;10.014;2022-08-21T13:12:30;26.90;96.20
10070;DHT22;5074;53.720;10.014;2022-08-21T13:15:02;27.20;96.30
10070;DHT22;5074;53.720;10.014;2022-08-21T13:17:35;26.70;95.80
10070;DHT22;5074;53.720;10.014;2022-08-21T13:20:08;27.30;95.40
10070;DHT22;5074;53.720;10.014;2022-08-21T13:22:47;28.50;94.00
10070;DHT22;5074;53.720;10.014;2022-08-21T13:25:16;29.70;93.00
10070;DHT22;5074;53.720;10.014;2022-08-21T13:27:56;30.70;92.50
10070;DHT22;5074;53.720;10.014;2022-08-21T13:30:27;31.50;91.60
10070;DHT22;5074;53.720;10.014;2022-08-21T13:32:57;31.40;90.90
10070;DHT22;5074;53.720;10.014;2022-08-21T13:35:28;31.70;87.80
10070;DHT22;5074;53.720;10.014;2022-08-21T13:38:00;31.90;84.80
10070;DHT22;5074;53.720;10.014;2022-08-21T13:40:29;31.70;85.30
10070;DHT22;5074;53.720;10.014;2022-08-21T13:43:00;31.10;85.60
10070;DHT22;5074;53.720;10.014;2022-08-21T13:45:30;31.60;86.10
10070;DHT22;5074;53.720;10.014;2022-08-21T13:48:00;31.00;85.10
10070;DHT22;5074;53.720;10.014;2022-08-21T13:50:33;29.90;86.40
10070;DHT22;5074;53.720;10.014;2022-08-21T13:53:05;28.50;88.40
10070;DHT22;5074;53.720;10.014;2022-08-21T13:55:47;28.00;90.00
10070;DHT22;5074;53.720;10.014;2022-08-21T13:58:23;28.90;90.00
10070;DHT22;5074;53.720;10.014;2022-08-21T14:00:53;29.90;86.30
10070;DHT22;5074;53.720;10.014;2022-08-21T14:03:26;31.20;83.70
10070;DHT22;5074;53.720;10.014;2022-08-21T14:05:58;32.00;83.50
10070;DHT22;5074;53.720;10.014;2022-08-21T14:08:29;31.40;84.70
10070;DHT22;5074;53.720;10.014;2022-08-21T14:11:02;31.60;83.40
10070;DHT22;5074;53.720;10.014;2022-08-21T14:13:36;31.60;82.20
10070;DHT22;5074;53.720;10.014;2022-08-21T14:16:15;31.90;82.30
10070;DHT22;5074;53.720;10.014;2022-08-21T14:18:50;33.00;81.00
10070;DHT22;5074;53.720;10.014;2022-08-21T14:21:24;33.50;80.90
10070;DHT22;5074;53.720;10.014;2022-08-21T14:24:01;33.40;79.60
10070;DHT22;5074;53.720;10.014;2022-08-21T14:26:30;34.20;78.80
10070;DHT22;5074;53.720;10.014;2022-08-21T14:29:00;33.30;78.20
10070;DHT22;5074;53.720;10.014;2022-08-21T14:31:36;32.30;78.80
10070;DHT22;5074;53.720;10.014;2022-08-21T14:34:10;32.10;79.50
10070;DHT22;5074;53.720;10.014;2022-08-21T14:36:45;30.80;79.70
10070;DHT22;5074;53.720;10.014;2022-08-21T14:39:16;29.30;82.20
10070;DHT22;5074;53.720;10.014;2022-08-21T14:41:45;27.90;84.40
10070;DHT22;5074;53.720;10.014;2022-08-21T14:44:15;26.90;85.70
10070;DHT22;5074;53.720;10.014;2022-08-21T14:46:44;26.00;87.10
10070;DHT22;5074;53.720;10.014;2022-08-21T14:49:26;25.40;89.20
10070;DHT22;5074;53.720;10.014;2022-08-21T14:51:55;25.10;90.10
10070;DHT22;5074;53.720;10.014;2022-08-21T14:54:26;24.80;90.50
10070;DHT22;5074;53.720;10.014;2022-08-21T14:56:58;25.20;91.00
10070;DHT22;5074;53.720;10.014;2022-08-21T14:59:28;27.10;90.20
10070;DHT22;5074;53.720;10.014;2022-08-21T15:01:56;29.30;87.40
10070;DHT22;5074;53.720;10.014;2022-08-21T15:04:24;31.10;83.70
10070;DHT22;5074;53.720;10.014;2022-08-21T15:06:53;32.60;81.20
10070;DHT22;5074;53.720;10.014;2022-08-21T15:09:21;33.50;81.40
10070;DHT22;5074;53.720;10.014;2022-08-21T15:11:52;34.30;78.70
10070;DHT22;5074;53.720;10.014;2022-08-21T15:14:23;34.60;78.40
10070;DHT22;5074;53.720;10.014;2022-08-21T15:16:53;34.80;76.10
10070;DHT22;5074;53.720;10.014;2022-08-21T15:19:21;34.20;76.10
10070;DHT22;5074;53.720;10.014;2022-08-21T15:21:49;34.30;75.40
10070;DHT22;5074;53.720;10.014;2022-08-21T15:24:18;34.40;74.80
10070;DHT22;5074;53.720;10.014;2022-08-21T15:26:46;34.30;75.80
10070;DHT22;5074;53.720;10.014;2022-08-21T15:29:15;34.20;75.40
10070;DHT22;5074;53.720;10.014;2022-08-21T15:31:52;34.20;74.40
10070;DHT22;5074;53.720;10.014;2022-08-21T15:34:21;34.30;73.90
10070;DHT22;5074;53.720;10.014;2022-08-21T15:36:53;33.50;73.60
10070;DHT22;5074;53.720;10.014;2022-08-21T15:39:23;33.80;73.70
10070;DHT22;5074;53.720;10.014;2022-08-21T15:41:57;33.40;74.80
10070;DHT22;5074;53.720;10.014;2022-08-21T15:44:38;33.00;74.60
10070;DHT22;5074;53.720;10.014;2022-08-21T15:47:07;33.70;75.70
10070;DHT22;5074;53.720;10.014;2022-08-21T15:49:39;33.70;74.70
10070;DHT22;5074;53.720;10.014;2022-08-21T15:52:11;33.70;74.80
10070;DHT22;5074;53.720;10.014;2022-08-21T15:54:39;34.50;73.40
10070;DHT22;5074;53.720;10.014;2022-08-21T15:57:08;34.60;73.20
10070;DHT22;5074;53.720;10.014;2022-08-21T15:59:39;33.90;73.10
10070;DHT22;5074;53.720;10.014;2022-08-21T16:02:09;32.90;73.90
10070;DHT22;5074;53.720;10.014;2022-08-21T16:04:41;32.80;74.50